METAR Reports From Nearby Airports

 

KLUD - Decatur, Texas, USA
Distance from Wildwood: ESE 5mi, 8km
Updated: Sep 17, 2019 9:55am
Clear
Clear
 Wind from calm
Wind: Calm
Temperature: 81°F , 27°C
Heat Index: 83°F , 28°C
Dew Point: 66°F , 19°C
Humidity: 62%
Barometer: 30.03 inHg , 1016.9 hPa
Clouds: Clear
Visibility: 10 miles , 16 km
2019/09/17 14:55 KLUD 171455Z AUTO 00000KT 10SM CLR 27/19 A3003 RMK AO2 T02740193
KXBP - Bridgeport, Texas, USA
Distance from Wildwood: WSW 11mi, 18km
Updated: Sep 17, 2019 9:55am
Clear
Clear
 Wind from calm
Wind: Calm
Temperature: 82°F , 28°C
Heat Index: 84°F , 29°C
Dew Point: 66°F , 19°C
Humidity: 58%
Barometer: 30.05 inHg , 1017.6 hPa
Clouds: Clear
Visibility: 10 miles , 16 km
2019/09/17 14:55 KXBP 171455Z AUTO 00000KT 10SM CLR 28/19 A3005 RMK AO2 T02750191
 
K0F2 - Bowie, Texas, USA
Distance from Wildwood: NNW 24mi, 39km
Updated: Sep 17, 2019 9:55am
Clear
Clear
 Wind from SE
Wind: SE 5 mph , 7 km/h
Temperature: 82°F , 28°C
Heat Index: 85°F , 29°C
Dew Point: 68°F , 20°C
Humidity: 62%
Barometer: 30.04 inHg , 1017.3 hPa
Clouds: Clear
Visibility: 10 miles , 16 km
2019/09/17 14:55 K0F2 171455Z AUTO 13004KT 10SM CLR 28/20 A3004 RMK AO2 T02760197
KDTO - Denton, Texas, USA
Distance from Wildwood: E 27mi, 44km
Updated: Sep 17, 2019 9:53am
Clear
Clear
 Wind from NNE
Wind: NNE 5 mph , 7 km/h
Temperature: 84°F , 29°C
Heat Index: 87°F , 31°C
Dew Point: 68°F , 20°C
Humidity: 58%
Barometer: 30.01 inHg , 1016.3 hPa
Clouds: Clear
Visibility: 10 miles , 16 km
2019/09/17 14:53 KDTO 171453Z 02004KT 10SM CLR 29/20 A3001 RMK AO2 SLP153 T02940200 51004
 
KAFW - Ft Worth/Allianc, Texas, USA
Distance from Wildwood: SE 29mi, 46km
Updated: Sep 17, 2019 9:53am
Clear
Clear
 Wind from NE
Wind: NE 3 mph , 6 km/h
Temperature: 84°F , 29°C
Heat Index: 88°F , 31°C
Dew Point: 70°F , 21°C
Humidity: 62%
Barometer: 30.01 inHg , 1016.3 hPa
Clouds: Clear
Visibility: 10 miles , 16 km
2019/09/17 14:53 KAFW 171453Z 04003KT 10SM CLR 29/21 A3001 RMK AO2 SLP143 T02890206 51005
KFTW - Fort Worth, Texas, USA
Distance from Wildwood: SSE 34mi, 55km
Updated: Sep 17, 2019 9:53am
Clear
Clear
 Wind from ENE
Wind: ENE 3 mph , 6 km/h
Temperature: 81°F , 27°C
Heat Index: 83°F , 28°C
Dew Point: 66°F , 19°C
Humidity: 62%
Barometer: 30.00 inHg , 1015.9 hPa
Clouds: Clear
Visibility: 10 miles , 16 km
2019/09/17 14:53 KFTW 171453Z 06003KT 10SM CLR 27/19 A3000 RMK AO2 SLP149 T02670194 51005
 
KNFW - Fort Worth Nas, Texas, USA
Distance from Wildwood: SSE 36mi, 58km
Updated: Sep 17, 2019 9:52am
Clear
Clear
 Wind from NE
Wind: NE 5 mph , 7 km/h
Temperature: 84°F , 29°C
Heat Index: 86°F , 30°C
Dew Point: 66°F , 19°C
Humidity: 55%
Barometer: 30.01 inHg , 1016.3 hPa
Clouds: Clear
Visibility: 10 miles , 16 km
2019/09/17 14:52 KNFW 171452Z 05004KT 10SM CLR 29/19 A3001 RMK AO2 SLP145 T02940189 51006 CHINO N VISNO N $
KGLE - Gainesville, Texas, USA
Distance from Wildwood: NE 38mi, 61km
Updated: Sep 17, 2019 9:55am
Clear
Clear
 Wind from calm
Wind: Calm
Temperature: 82°F , 28°C
Heat Index: 84°F , 29°C
Dew Point: 66°F , 19°C
Humidity: 58%
Barometer: 30.05 inHg , 1017.6 hPa
Clouds: Clear
Visibility: 10 miles , 16 km
2019/09/17 14:55 KGLE 171455Z AUTO 00000KT 10SM CLR 28/19 A3005 RMK AO2 T02780194
 
KMWL - Mineral Wells, Texas, USA
Distance from Wildwood: SW 41mi, 65km
Updated: Sep 17, 2019 9:53am
Clear
Clear
 Wind from calm
Wind: Calm
Temperature: 82°F , 28°C
Heat Index: 85°F , 29°C
Dew Point: 68°F , 20°C
Humidity: 62%
Barometer: 30.01 inHg , 1016.3 hPa
Clouds: Clear
Visibility: 10 miles , 16 km
2019/09/17 14:53 KMWL 171453Z AUTO 00000KT 10SM CLR 28/20 A3001 RMK AO2 SLP147 T02780200 53007
KDFW - Dallas/Ft Worth, Texas, USA
Distance from Wildwood: ESE 45mi, 73km
Updated: Sep 17, 2019 9:53am
Few Clouds
Few Clouds
 Wind from ESE
Wind: ESE 8 mph , 13 km/h
Temperature: 82°F , 28°C
Heat Index: 86°F , 30°C
Dew Point: 70°F , 21°C
Humidity: 66%
Barometer: 29.99 inHg , 1015.6 hPa
Clouds: Few Clouds
Visibility: 10 miles , 16 km
Cloud details: Few Clouds 30000 ft
2019/09/17 14:53 KDFW 171453Z 11007KT 10SM FEW300 28/21 A2999 RMK AO2 SLP147 T02830206 51006